Time;durP1;ratioP1;P1;durP2;ratioP2;P2;SDS_P1;SDS_P2;PMS_P1;PMS_P2;Temp;Humidity;BMP_temperature;BMP_pressure;BME280_temperature;BME280_humidity;BME280_pressure;Samples;Min_cycle;Max_cycle;Signal;HPM_P1;HPM_P2
2024/04/09 05:20:41;;;;;;;;;;;;;;;;;;3444890;24;20342;-46
2024/04/09 05:23:07;;;;;;;;;;;;;;;;;;5344431;26;19966;-47
2024/04/09 05:25:33;;;;;;;;;;;;;;;;;;5344538;26;20289;-47
2024/04/09 05:27:59;;;;;;;;;;;;;;;;;;5344790;26;19930;-48
2024/04/09 05:30:25;;;;;;;;;;;;;;;;;;5344276;26;19936;-47
2024/04/09 05:32:51;;;;;;;;;;;;;;;;;;5344488;26;19999;-47
2024/04/09 05:35:19;;;;;;;;;;;;;;;;;;5344242;26;19999;-50
2024/04/09 05:37:45;;;;;;;;;;;;;;;;;;5344597;26;19980;-51
2024/04/09 05:40:11;;;;;;;;;;;;;;;;;;5344135;26;19938;-49
2024/04/09 05:42:37;;;;;;;;;;;;;;;;;;5344468;26;20383;-50
2024/04/09 05:45:03;;;;;;;;;;;;;;;;;;5344518;26;19930;-51
2024/04/09 05:47:29;;;;;;;;;;;;;;;;;;5344190;26;20291;-46
2024/04/09 05:49:55;;;;;;;;;;;;;;;;;;5343912;26;19938;-50
2024/04/09 05:52:21;;;;;;;;;;;;;;;;;;5313579;26;19999;-46
2024/04/09 05:54:47;;;;;;;;;;;;;;;;;;5342892;26;19941;-49
2024/04/09 05:57:13;;;;;;;;;;;;;;;;;;5344130;26;19934;-50
2024/04/09 05:59:39;;;;;;;;;;;;;;;;;;5342955;26;19954;-45
2024/04/09 06:02:05;;;;;;;;;;;;;;;;;;5343847;26;20351;-45
2024/04/09 06:04:31;;;;;;;;;;;;;;;;;;5344445;26;19930;-46
2024/04/09 06:06:57;;;;;;;;;;;;;;;;;;5344183;26;19937;-49
2024/04/09 06:09:23;;;;;;;;;;;;;;;;;;5343969;26;19970;-47
2024/04/09 06:11:48;;;;;;;;;;;;;;;;;;5344316;26;19930;-47
2024/04/09 06:14:14;;;;;;;;;;;;;;;;;;5343761;26;19930;-47
2024/04/09 06:16:40;;;;;;;;;;;;;;;;;;5344140;26;19930;-48
2024/04/09 06:19:06;;;;;;;;;;;;;;;;;;5343661;26;19933;-49
2024/04/09 06:21:32;;;;;;;;;;;;;;;;;;5344528;26;19937;-47
2024/04/09 06:23:58;;;;;;;;;;;;;;;;;;5343995;26;19940;-49
2024/04/09 06:26:24;;;;;;;;;;;;;;;;;;5341693;26;19938;-48
2024/04/09 06:28:49;;;;;;;;;;;;;;;;;;5343885;26;20271;-47
2024/04/09 06:31:15;;;;;;;;;;;;;;;;;;5343912;26;19941;-46
2024/04/09 06:33:41;;;;;;;;;;;;;;;;;;5343882;26;20384;-49
2024/04/09 06:36:07;;;;;;;;;;;;;;;;;;5340693;26;19934;-47
2024/04/09 06:38:33;;;;;;;;;;;;;;;;;;5340237;26;19938;-48
2024/04/09 06:40:59;;;;;;;;;;;;;;;;;;5343660;26;19930;-48
2024/04/09 06:43:25;;;;;;;;;;;;;;;;;;5343627;26;20391;-48
2024/04/09 06:45:51;;;;;;;;;;;;;;;;;;5341750;26;19930;-48
2024/04/09 06:48:16;;;;;;;;;;;;;;;;;;5343083;26;19938;-45
2024/04/09 06:50:42;;;;;;;;;;;;;;;;;;5342100;26;19930;-48
2024/04/09 06:53:08;;;;;;;;;;;;;;;;;;5339348;26;19930;-49
2024/04/09 06:55:34;;;;;;;;;;;;;;;;;;5342176;26;19930;-46
2024/04/09 06:58:00;;;;;;;;;;;;;;;;;;5342087;26;19981;-47
2024/04/09 07:00:26;;;;;;;;;;;;;;;;;;5342750;26;20371;-48
2024/04/09 07:02:55;;;;;;;;;;;;;;;;;;5343145;26;19930;-46
2024/04/09 07:05:20;;;;;;;;;;;;;;;;;;5344327;26;19930;-47
2024/04/09 07:07:46;;;;;;;;;;;;;;;;;;5346537;26;20390;-48
2024/04/09 07:10:13;;;;;;;;;;;;;;;;;;5346154;26;19930;-47
2024/04/09 07:12:38;;;;;;;;;;;;;;;;;;5346692;26;19930;-46
2024/04/09 07:15:04;;;;;;;;;;;;;;;;;;5346600;26;20256;-49
2024/04/09 07:17:30;;;;;;;;;;;;;;;;;;5346485;26;19930;-47
2024/04/09 07:19:58;;;;;;;;;;;;;;;;;;5346248;26;20397;-47
2024/04/09 07:22:24;;;;;;;;;;;;;;;;;;5346376;26;19930;-49
2024/04/09 07:24:50;;;;;;;;;;;;;;;;;;5346187;26;20003;-48
2024/04/09 07:27:16;;;;;;;;;;;;;;;;;;5346375;26;19936;-47
2024/04/09 07:29:42;;;;;;;;;;;;;;;;;;5346174;26;19942;-45
2024/04/09 07:32:08;;;;;;;;;;;;;;;;;;5346443;26;19930;-46
2024/04/09 07:34:34;;;;;;;;;;;;;;;;;;5346037;26;19930;-47
2024/04/09 07:37:00;;;;;;;;;;;;;;;;;;5346315;26;19938;-46
2024/04/09 07:39:26;;;;;;;;;;;;;;;;;;5346093;26;19930;-44
2024/04/09 07:41:52;;;;;;;;;;;;;;;;;;5346049;26;19941;-49
2024/04/09 07:44:18;;;;;;;;;;;;;;;;;;5345901;26;19930;-45
2024/04/09 07:46:48;;;;;;;;;;;;;;;;;;5345763;26;19930;-48
2024/04/09 07:49:14;;;;;;;;;;;;;;;;;;5345637;26;19930;-46
2024/04/09 07:51:40;;;;;;;;;;;;;;;;;;5346126;26;20303;-48
2024/04/09 07:54:06;;;;;;;;;;;;;;;;;;5346035;26;19932;-49
2024/04/09 07:56:33;;;;;;;;;;;;;;;;;;5345875;26;19937;-48
2024/04/09 07:58:59;;;;;;;;;;;;;;;;;;5345729;26;20267;-50
2024/04/09 08:01:25;;;;;;;;;;;;;;;;;;5345691;26;19934;-51
2024/04/09 08:03:51;;;;;;;;;;;;;;;;;;5345725;26;19930;-47
2024/04/09 08:06:16;;;;;;;;;;;;;;;;;;5345408;26;19930;-49
2024/04/09 08:08:42;;;;;;;;;;;;;;;;;;5345588;26;20024;-51
2024/04/09 08:11:08;;;;;;;;;;;;;;;;;;5346218;26;19938;-48
2024/04/09 08:13:34;;;;;;;;;;;;;;;;;;5345693;26;19930;-49
2024/04/09 08:16:00;;;;;;;;;;;;;;;;;;5345282;26;20340;-50
2024/04/09 08:18:27;;;;;;;;;;;;;;;;;;5344583;26;19933;-48
2024/04/09 08:20:53;;;;;;;;;;;;;;;;;;5345345;26;19930;-50
2024/04/09 08:23:18;;;;;;;;;;;;;;;;;;5345452;26;19930;-50
2024/04/09 08:25:44;;;;;;;;;;;;;;;;;;5345414;26;20394;-47
2024/04/09 08:28:10;;;;;;;;;;;;;;;;;;5345584;26;19945;-49
2024/04/09 08:30:37;;;;;;;;;;;;;;;;;;5345273;26;19937;-52
2024/04/09 08:33:03;;;;;;;;;;;;;;;;;;5345383;26;19930;-47
2024/04/09 08:35:29;;;;;;;;;;;;;;;;;;5345236;26;19954;-48
2024/04/09 08:37:55;;;;;;;;;;;;;;;;;;5345087;26;19930;-51
2024/04/09 08:40:21;;;;;;;;;;;;;;;;;;5344909;26;19975;-50
2024/04/09 08:42:47;;;;;;;;;;;;;;;;;;5345223;26;19930;-51
2024/04/09 08:45:16;;;;;;;;;;;;;;;;;;5345387;26;19937;-50
2024/04/09 08:47:42;;;;;;;;;;;;;;;;;;5345407;26;20364;-49
2024/04/09 08:50:08;;;;;;;;;;;;;;;;;;5344879;26;19937;-50
2024/04/09 08:52:34;;;;;;;;;;;;;;;;;;5345003;26;19930;-49
2024/04/09 08:55:00;;;;;;;;;;;;;;;;;;5345243;26;19930;-48
2024/04/09 08:57:28;;;;;;;;;;;;;;;;;;5344758;26;20284;-51
2024/04/09 08:59:55;;;;;;;;;;;;;;;;;;5344722;26;20264;-50
2024/04/09 09:02:21;;;;;;;;;;;;;;;;;;5344589;26;19934;-49
2024/04/09 09:04:47;;;;;;;;;;;;;;;;;;5345040;26;19941;-49
2024/04/09 09:07:13;;;;;;;;;;;;;;;;;;5344871;26;20280;-47
2024/04/09 09:09:39;;;;;;;;;;;;;;;;;;5344587;26;19957;-49
2024/04/09 09:12:08;;;;;;;;;;;;;;;;;;5345013;26;19936;-48
2024/04/09 09:14:34;;;;;;;;;;;;;;;;;;5344465;26;19954;-50
2024/04/09 09:17:01;;;;;;;;;;;;;;;;;;5344743;26;20264;-51
2024/04/09 09:19:30;;;;;;;;;;;;;;;;;;5344462;26;19941;-49
2024/04/09 09:21:56;;;;;;;;;;;;;;;;;;5344379;26;20007;-49
2024/04/09 09:24:22;;;;;;;;;;;;;;;;;;5344527;26;19942;-49
2024/04/09 09:26:48;;;;;;;;;;;;;;;;;;5344535;26;19934;-49
2024/04/09 09:29:14;;;;;;;;;;;;;;;;;;5343203;26;20372;-51
2024/04/09 09:31:41;;;;;;;;;;;;;;;;;;5344331;26;19937;-48
2024/04/09 09:34:07;;;;;;;;;;;;;;;;;;5344337;26;19938;-49
2024/04/09 09:36:33;;;;;;;;;;;;;;;;;;5313736;26;19937;-50
2024/04/09 09:38:59;;;;;;;;;;;;;;;;;;5344387;26;19930;-52
2024/04/09 09:41:25;;;;;;;;;;;;;;;;;;5340586;26;19937;-50
2024/04/09 09:43:51;;;;;;;;;;;;;;;;;;5342794;26;20370;-50
2024/04/09 09:46:17;;;;;;;;;;;;;;;;;;5344894;26;19929;-48
2024/04/09 09:48:43;;;;;;;;;;;;;;;;;;5343789;26;19930;-51
2024/04/09 09:51:10;;;;;;;;;;;;;;;;;;5331720;26;19936;-52
2024/04/09 09:53:36;;;;;;;;;;;;;;;;;;5334992;26;19930;-51
2024/04/09 09:56:02;;;;;;;;;;;;;;;;;;5341700;26;19961;-52
2024/04/09 09:58:30;;;;;;;;;;;;;;;;;;5342822;26;19934;-49
2024/04/09 10:00:58;;;;;;;;;;;;;;;;;;5342350;26;19934;-47
2024/04/09 10:03:25;;;;;;;;;;;;;;;;;;5340045;26;19937;-47
2024/04/09 10:05:51;;;;;;;;;;;;;;;;;;5339983;26;20354;-47
2024/04/09 10:08:17;;;;;;;;;;;;;;;;;;5343588;26;19999;-50
2024/04/09 10:10:43;;;;;;;;;;;;;;;;;;5342863;26;20186;-47
2024/04/09 10:13:09;;;;;;;;;;;;;;;;;;5342953;26;19961;-50
2024/04/09 10:15:35;;;;;;;;;;;;;;;;;;5344048;26;19937;-49
2024/04/09 10:18:04;;;;;;;;;;;;;;;;;;5342296;26;19930;-50
2024/04/09 10:20:36;;;;;;;;;;;;;;;;;;5343537;26;20315;-47
2024/04/09 10:23:02;;;;;;;;;;;;;;;;;;5341416;26;19937;-49
2024/04/09 10:25:28;;;;;;;;;;;;;;;;;;5343427;26;19930;-48
2024/04/09 10:27:53;;;;;;;;;;;;;;;;;;5336014;26;19945;-48
2024/04/09 10:30:21;;;;;;;;;;;;;;;;;;5326926;26;20380;-46
2024/04/09 10:32:46;;;;;;;;;;;;;;;;;;5343031;26;19936;-48
2024/04/09 10:35:12;;;;;;;;;;;;;;;;;;5342451;26;20339;-48
2024/04/09 10:37:38;;;;;;;;;;;;;;;;;;5337924;26;19930;-47
2024/04/09 10:40:04;;;;;;;;;;;;;;;;;;5344254;26;20279;-47
2024/04/09 10:42:30;;;;;;;;;;;;;;;;;;5346426;26;20000;-46
2024/04/09 10:44:56;;;;;;;;;;;;;;;;;;5328189;26;19973;-48
2024/04/09 10:47:22;;;;;;;;;;;;;;;;;;5346051;26;20021;-50
2024/04/09 10:49:48;;;;;;;;;;;;;;;;;;5346626;26;19934;-47
2024/04/09 10:52:14;;;;;;;;;;;;;;;;;;5346228;26;19930;-45
2024/04/09 10:54:40;;;;;;;;;;;;;;;;;;5346540;26;19930;-49
2024/04/09 10:57:05;;;;;;;;;;;;;;;;;;5340150;26;19949;-45
2024/04/09 10:59:31;;;;;;;;;;;;;;;;;;5344938;26;19981;-48
2024/04/09 11:01:57;;;;;;;;;;;;;;;;;;5346927;26;20334;-52
2024/04/09 11:04:23;;;;;;;;;;;;;;;;;;5343540;26;19937;-51
2024/04/09 11:06:49;;;;;;;;;;;;;;;;;;5343496;26;19929;-52
2024/04/09 11:09:15;;;;;;;;;;;;;;;;;;5345444;26;19957;-51
2024/04/09 11:11:43;;;;;;;;;;;;;;;;;;5344771;26;19929;-50
2024/04/09 11:14:09;;;;;;;;;;;;;;;;;;5344797;26;19966;-52
2024/04/09 11:16:35;;;;;;;;;;;;;;;;;;5342656;26;19930;-53
2024/04/09 11:19:01;;;;;;;;;;;;;;;;;;5345864;26;19937;-52
2024/04/09 11:21:27;;;;;;;;;;;;;;;;;;5345228;26;19937;-51
2024/04/09 11:23:53;;;;;;;;;;;;;;;;;;5341062;26;20331;-51
2024/04/09 11:26:20;;;;;;;;;;;;;;;;;;5345331;26;19938;-53
2024/04/09 11:28:45;;;;;;;;;;;;;;;;;;5342350;26;19980;-51
2024/04/09 11:31:11;;;;;;;;;;;;;;;;;;5344079;26;20352;-54
2024/04/09 11:33:38;;;;;;;;;;;;;;;;;;5340857;26;19930;-52
2024/04/09 11:36:03;;;;;;;;;;;;;;;;;;5342363;26;19930;-53
2024/04/09 11:38:29;;;;;;;;;;;;;;;;;;5343936;26;20004;-49
2024/04/09 11:40:55;;;;;;;;;;;;;;;;;;5344338;26;19999;-52
2024/04/09 11:43:21;;;;;;;;;;;;;;;;;;5341736;26;19936;-52
2024/04/09 11:45:47;;;;;;;;;;;;;;;;;;5338182;26;19930;-49
2024/04/09 11:48:13;;;;;;;;;;;;;;;;;;5344791;26;19930;-51
2024/04/09 11:50:39;;;;;;;;;;;;;;;;;;5345038;26;20295;-50
2024/04/09 11:53:05;;;;;;;;;;;;;;;;;;5336265;26;19945;-50
2024/04/09 11:55:31;;;;;;;;;;;;;;;;;;5340360;26;19963;-49
2024/04/09 11:57:57;;;;;;;;;;;;;;;;;;5337346;26;19941;-52
2024/04/09 12:00:23;;;;;;;;;;;;;;;;;;5340807;26;19930;-50
2024/04/09 12:02:52;;;;;;;;;;;;;;;;;;5340026;26;19942;-52
2024/04/09 12:05:17;;;;;;;;;;;;;;;;;;5338506;26;19934;-48
2024/04/09 12:07:43;;;;;;;;;;;;;;;;;;5337248;26;19942;-51
2024/04/09 12:10:09;;;;;;;;;;;;;;;;;;5308399;26;19937;-50
2024/04/09 12:12:35;;;;;;;;;;;;;;;;;;5312731;26;19941;-50
2024/04/09 12:15:03;;;;;;;;;;;;;;;;;;5339906;26;19930;-51
2024/04/09 12:17:29;;;;;;;;;;;;;;;;;;5338359;26;19930;-50
2024/04/09 12:19:55;;;;;;;;;;;;;;;;;;5340322;26;19937;-52
2024/04/09 12:22:21;;;;;;;;;;;;;;;;;;5334051;26;19937;-49
2024/04/09 12:24:47;;;;;;;;;;;;;;;;;;5339115;26;19936;-51
2024/04/09 12:27:13;;;;;;;;;;;;;;;;;;5340626;26;19997;-53
2024/04/09 12:29:39;;;;;;;;;;;;;;;;;;5310015;26;19941;-52
2024/04/09 12:32:06;;;;;;;;;;;;;;;;;;5338833;26;20004;-52
2024/04/09 12:34:31;;;;;;;;;;;;;;;;;;5336064;26;19933;-50
2024/04/09 12:36:57;;;;;;;;;;;;;;;;;;5339004;26;20259;-51
2024/04/09 12:39:24;;;;;;;;;;;;;;;;;;5306831;26;20272;-50
2024/04/09 12:41:50;;;;;;;;;;;;;;;;;;5338420;26;20324;-53
2024/04/09 12:44:16;;;;;;;;;;;;;;;;;;5333106;26;19942;-51
2024/04/09 12:46:42;;;;;;;;;;;;;;;;;;5335584;26;19958;-50
2024/04/09 12:49:08;;;;;;;;;;;;;;;;;;5339311;26;19937;-49
2024/04/09 12:51:34;;;;;;;;;;;;;;;;;;5338162;26;19930;-49
2024/04/09 12:54:00;;;;;;;;;;;;;;;;;;5341622;26;19942;-50
2024/04/09 12:56:26;;;;;;;;;;;;;;;;;;5335700;26;20385;-53
2024/04/09 12:58:52;;;;;;;;;;;;;;;;;;5336799;26;19962;-51
2024/04/09 13:01:18;;;;;;;;;;;;;;;;;;5340590;26;20267;-53
2024/04/09 13:03:45;;;;;;;;;;;;;;;;;;5340397;26;19938;-52
2024/04/09 13:06:11;;;;;;;;;;;;;;;;;;5339996;26;20348;-50
2024/04/09 13:08:37;;;;;;;;;;;;;;;;;;5343257;26;20004;-51
2024/04/09 13:11:03;;;;;;;;;;;;;;;;;;5341250;26;19938;-52
2024/04/09 13:13:29;;;;;;;;;;;;;;;;;;5344744;26;20259;-53
2024/04/09 13:15:55;;;;;;;;;;;;;;;;;;5344735;26;19930;-53
2024/04/09 13:18:21;;;;;;;;;;;;;;;;;;5344748;26;19933;-54
2024/04/09 13:20:47;;;;;;;;;;;;;;;;;;5344197;26;20265;-52
2024/04/09 13:23:13;;;;;;;;;;;;;;;;;;5336454;26;19937;-51
2024/04/09 13:25:39;;;;;;;;;;;;;;;;;;5343329;26;20013;-53
2024/04/09 13:28:05;;;;;;;;;;;;;;;;;;5344442;26;20384;-53
2024/04/09 13:30:31;;;;;;;;;;;;;;;;;;5339886;26;19930;-52
2024/04/09 13:32:57;;;;;;;;;;;;;;;;;;5344285;26;19938;-51
2024/04/09 13:35:22;;;;;;;;;;;;;;;;;;5344390;26;19942;-52
2024/04/09 13:37:48;;;;;;;;;;;;;;;;;;5341694;26;19997;-53
2024/04/09 13:40:14;;;;;;;;;;;;;;;;;;5342989;26;20363;-54
2024/04/09 13:42:40;;;;;;;;;;;;;;;;;;5344678;26;19941;-52
2024/04/09 13:45:06;;;;;;;;;;;;;;;;;;5344387;26;19930;-54
2024/04/09 13:47:32;;;;;;;;;;;;;;;;;;5343971;26;19934;-53
2024/04/09 13:49:58;;;;;;;;;;;;;;;;;;5343925;26;19938;-53
2024/04/09 13:52:24;;;;;;;;;;;;;;;;;;5344576;26;19942;-53
2024/04/09 13:54:50;;;;;;;;;;;;;;;;;;5344327;26;19930;-54
2024/04/09 13:57:16;;;;;;;;;;;;;;;;;;5344094;26;20326;-54
2024/04/09 13:59:42;;;;;;;;;;;;;;;;;;5343941;26;19937;-52
2024/04/09 14:02:08;;;;;;;;;;;;;;;;;;5344013;26;20001;-54
2024/04/09 14:04:34;;;;;;;;;;;;;;;;;;5343808;26;20284;-52
2024/04/09 14:06:59;;;;;;;;;;;;;;;;;;5343973;26;19930;-54
2024/04/09 14:09:25;;;;;;;;;;;;;;;;;;5344206;26;20376;-50
2024/04/09 14:11:51;;;;;;;;;;;;;;;;;;5343910;26;19930;-53
2024/04/09 14:14:17;;;;;;;;;;;;;;;;;;5343347;26;19930;-52
2024/04/09 14:16:43;;;;;;;;;;;;;;;;;;5343768;26;20400;-55
2024/04/09 14:19:12;;;;;;;;;;;;;;;;;;5343914;26;19930;-52
2024/04/09 14:21:40;;;;;;;;;;;;;;;;;;5343541;26;19962;-52
2024/04/09 14:24:06;;;;;;;;;;;;;;;;;;5343846;26;20375;-54
2024/04/09 14:26:32;;;;;;;;;;;;;;;;;;5343421;26;19942;-54
2024/04/09 14:28:58;;;;;;;;;;;;;;;;;;5343766;26;20004;-54
2024/04/09 14:31:24;;;;;;;;;;;;;;;;;;5313393;26;19966;-49
2024/04/09 14:33:50;;;;;;;;;;;;;;;;;;5343722;26;20457;-52
2024/04/09 14:36:16;;;;;;;;;;;;;;;;;;5343568;26;19980;-54
2024/04/09 14:38:42;;;;;;;;;;;;;;;;;;5343456;26;19938;-54
2024/04/09 14:41:10;;;;;;;;;;;;;;;;;;5343341;26;19973;-54
2024/04/09 14:43:36;;;;;;;;;;;;;;;;;;5343266;26;20263;-54
2024/04/09 14:46:02;;;;;;;;;;;;;;;;;;5343623;26;19930;-52
2024/04/09 14:48:28;;;;;;;;;;;;;;;;;;5343526;26;19982;-53
2024/04/09 14:50:53;;;;;;;;;;;;;;;;;;5342944;26;19930;-54
2024/04/09 14:53:19;;;;;;;;;;;;;;;;;;5343276;26;19930;-53
2024/04/09 14:55:45;;;;;;;;;;;;;;;;;;5343078;26;19957;-53
2024/04/09 14:58:11;;;;;;;;;;;;;;;;;;5343110;26;19938;-51
2024/04/09 15:00:37;;;;;;;;;;;;;;;;;;5343065;26;19930;-52
2024/04/09 15:03:03;;;;;;;;;;;;;;;;;;5343202;26;19937;-54
2024/04/09 15:05:29;;;;;;;;;;;;;;;;;;5343245;26;19937;-54
2024/04/09 15:07:55;;;;;;;;;;;;;;;;;;5342889;26;20058;-53
2024/04/09 15:10:22;;;;;;;;;;;;;;;;;;5342896;26;19929;-52
2024/04/09 15:12:48;;;;;;;;;;;;;;;;;;5342871;26;19938;-55
2024/04/09 15:15:14;;;;;;;;;;;;;;;;;;5342983;26;19934;-54
2024/04/09 15:17:40;;;;;;;;;;;;;;;;;;5342833;26;19942;-55
2024/04/09 15:20:09;;;;;;;;;;;;;;;;;;5342704;26;20354;-54
2024/04/09 15:22:35;;;;;;;;;;;;;;;;;;5312035;26;20366;-54
2024/04/09 15:25:01;;;;;;;;;;;;;;;;;;5312525;26;19970;-55
2024/04/09 15:27:26;;;;;;;;;;;;;;;;;;5345548;26;19938;-51
2024/04/09 15:29:52;;;;;;;;;;;;;;;;;;5346016;26;19930;-54
2024/04/09 15:32:18;;;;;;;;;;;;;;;;;;5345960;26;19930;-53
2024/04/09 15:34:44;;;;;;;;;;;;;;;;;;5346333;26;19954;-53
2024/04/09 15:37:11;;;;;;;;;;;;;;;;;;5346417;26;19930;-53
2024/04/09 15:39:36;;;;;;;;;;;;;;;;;;5345836;26;20007;-51
2024/04/09 15:42:02;;;;;;;;;;;;;;;;;;5346034;26;19930;-51
2024/04/09 15:44:28;;;;;;;;;;;;;;;;;;5346434;26;20553;-50
2024/04/09 15:46:54;;;;;;;;;;;;;;;;;;5346466;26;20000;-52
2024/04/09 15:49:20;;;;;;;;;;;;;;;;;;5346087;26;20384;-54
2024/04/09 15:51:46;;;;;;;;;;;;;;;;;;5345754;26;19938;-52
2024/04/09 15:54:13;;;;;;;;;;;;;;;;;;5346028;26;19942;-53
2024/04/09 15:56:39;;;;;;;;;;;;;;;;;;5345639;26;19930;-54
2024/04/09 15:59:07;;;;;;;;;;;;;;;;;;5345870;26;19930;-54
2024/04/09 16:01:33;;;;;;;;;;;;;;;;;;5345946;26;19942;-52
2024/04/09 16:03:59;;;;;;;;;;;;;;;;;;5346120;26;19940;-53
2024/04/09 16:06:26;;;;;;;;;;;;;;;;;;5345737;26;19981;-52
2024/04/09 16:08:52;;;;;;;;;;;;;;;;;;5345519;26;19930;-53
2024/04/09 16:11:18;;;;;;;;;;;;;;;;;;5345402;26;20360;-50
2024/04/09 16:13:44;;;;;;;;;;;;;;;;;;5345666;26;19940;-53
2024/04/09 16:16:11;;;;;;;;;;;;;;;;;;5345916;26;20390;-51
2024/04/09 16:18:36;;;;;;;;;;;;;;;;;;5345388;26;20326;-52
2024/04/09 16:21:03;;;;;;;;;;;;;;;;;;5345816;26;19942;-51
2024/04/09 16:23:28;;;;;;;;;;;;;;;;;;5346022;26;19930;-54
2024/04/09 16:25:54;;;;;;;;;;;;;;;;;;5345866;26;20372;-54
2024/04/09 16:28:20;;;;;;;;;;;;;;;;;;5345333;26;19930;-53
2024/04/09 16:30:46;;;;;;;;;;;;;;;;;;5345129;26;20383;-54
2024/04/09 16:33:12;;;;;;;;;;;;;;;;;;5345256;26;19937;-54
2024/04/09 16:35:38;;;;;;;;;;;;;;;;;;5345302;26;19934;-55
2024/04/09 16:38:04;;;;;;;;;;;;;;;;;;5344655;26;19930;-55
2024/04/09 16:40:30;;;;;;;;;;;;;;;;;;5345366;26;20259;-54
2024/04/09 16:42:56;;;;;;;;;;;;;;;;;;5344908;26;20166;-54
2024/04/09 16:45:22;;;;;;;;;;;;;;;;;;5345197;26;19937;-53
2024/04/09 16:47:49;;;;;;;;;;;;;;;;;;5344660;26;20274;-55
2024/04/09 16:50:16;;;;;;;;;;;;;;;;;;5344981;26;19941;-54
2024/04/09 16:52:42;;;;;;;;;;;;;;;;;;5345189;26;20384;-51
2024/04/09 16:55:08;;;;;;;;;;;;;;;;;;5344959;26;20004;-52
2024/04/09 16:57:34;;;;;;;;;;;;;;;;;;5345221;26;19943;-54
2024/04/09 17:00:00;;;;;;;;;;;;;;;;;;5344818;26;19930;-52
2024/04/09 17:02:26;;;;;;;;;;;;;;;;;;5344657;26;19934;-53
2024/04/09 17:04:51;;;;;;;;;;;;;;;;;;5345097;26;19930;-54
2024/04/09 17:07:17;;;;;;;;;;;;;;;;;;5344610;26;20261;-54
2024/04/09 17:09:43;;;;;;;;;;;;;;;;;;5344634;26;19930;-52
2024/04/09 17:12:10;;;;;;;;;;;;;;;;;;5344979;26;19941;-51
2024/04/09 17:14:36;;;;;;;;;;;;;;;;;;5314653;26;19930;-54
2024/04/09 17:17:02;;;;;;;;;;;;;;;;;;5339854;26;19938;-54
2024/04/09 17:19:28;;;;;;;;;;;;;;;;;;5339188;26;20257;-53
2024/04/09 17:21:55;;;;;;;;;;;;;;;;;;5343540;26;19958;-51
2024/04/09 17:24:20;;;;;;;;;;;;;;;;;;5341745;26;20383;-51
2024/04/09 17:26:46;;;;;;;;;;;;;;;;;;5313405;26;19953;-52
2024/04/09 17:29:12;;;;;;;;;;;;;;;;;;5343750;26;19929;-52
2024/04/09 17:31:38;;;;;;;;;;;;;;;;;;5343775;26;19941;-53
2024/04/09 17:34:05;;;;;;;;;;;;;;;;;;5344190;26;19941;-55
2024/04/09 17:36:31;;;;;;;;;;;;;;;;;;5348411;26;19930;-53
2024/04/09 17:38:57;;;;;;;;;;;;;;;;;;5312658;26;19930;-52
2024/04/09 17:41:23;;;;;;;;;;;;;;;;;;5342940;26;19934;-54
2024/04/09 17:43:49;;;;;;;;;;;;;;;;;;5318503;26;19934;-54
2024/04/09 17:46:15;;;;;;;;;;;;;;;;;;5342756;26;20319;-53
2024/04/09 17:48:41;;;;;;;;;;;;;;;;;;5325301;26;20324;-51
2024/04/09 17:51:07;;;;;;;;;;;;;;;;;;5331951;26;19977;-54
2024/04/09 17:53:33;;;;;;;;;;;;;;;;;;5341714;26;20276;-52
2024/04/09 17:55:59;;;;;;;;;;;;;;;;;;5339897;26;19930;-53
2024/04/09 17:58:25;;;;;;;;;;;;;;;;;;5309112;26;19938;-53
2024/04/09 18:00:53;;;;;;;;;;;;;;;;;;5336962;26;20017;-51
2024/04/09 18:03:21;;;;;;;;;;;;;;;;;;5336870;26;20551;-52
2024/04/09 18:05:48;;;;;;;;;;;;;;;;;;5341942;26;20360;-53
2024/04/09 18:08:13;;;;;;;;;;;;;;;;;;5338863;26;20062;-52
2024/04/09 18:10:41;;;;;;;;;;;;;;;;;;5311786;26;21190;-53
2024/04/09 18:13:07;;;;;;;;;;;;;;;;;;5337705;26;19942;-50
2024/04/09 18:15:34;;;;;;;;;;;;;;;;;;5306965;26;19930;-53
2024/04/09 18:18:00;;;;;;;;;;;;;;;;;;5312474;26;19929;-52
2024/04/09 18:20:26;;;;;;;;;;;;;;;;;;5337212;26;19958;-52
2024/04/09 18:22:55;;;;;;;;;;;;;;;;;;5332933;26;19930;-51
2024/04/09 18:25:22;;;;;;;;;;;;;;;;;;5337608;26;19996;-53
2024/04/09 18:27:48;;;;;;;;;;;;;;;;;;5329468;26;19962;-49
2024/04/09 18:30:15;;;;;;;;;;;;;;;;;;5336375;26;20367;-51
2024/04/09 18:32:40;;;;;;;;;;;;;;;;;;5308573;26;20359;-52
2024/04/09 18:35:06;;;;;;;;;;;;;;;;;;5338595;26;19930;-52
2024/04/09 18:37:33;;;;;;;;;;;;;;;;;;5335879;26;19954;-48
2024/04/09 18:39:59;;;;;;;;;;;;;;;;;;5336445;26;19981;-48
2024/04/09 18:42:25;;;;;;;;;;;;;;;;;;5342305;26;19941;-51
2024/04/09 18:44:51;;;;;;;;;;;;;;;;;;5341368;26;19942;-49
2024/04/09 18:47:19;;;;;;;;;;;;;;;;;;5310028;26;20298;-52
2024/04/09 18:49:46;;;;;;;;;;;;;;;;;;5338657;26;19930;-52
2024/04/09 18:52:12;;;;;;;;;;;;;;;;;;5338979;26;19999;-52
2024/04/09 18:54:39;;;;;;;;;;;;;;;;;;5337108;26;20275;-53
2024/04/09 18:57:05;;;;;;;;;;;;;;;;;;5341579;26;19934;-52
2024/04/09 18:59:31;;;;;;;;;;;;;;;;;;5340840;26;20375;-50
2024/04/09 19:01:57;;;;;;;;;;;;;;;;;;5338791;26;19937;-49
2024/04/09 19:04:23;;;;;;;;;;;;;;;;;;5342153;26;19932;-51
2024/04/09 19:06:49;;;;;;;;;;;;;;;;;;5313960;26;19930;-53
2024/04/09 19:09:15;;;;;;;;;;;;;;;;;;5343186;26;19930;-50
2024/04/09 19:11:41;;;;;;;;;;;;;;;;;;5338922;26;19930;-52
2024/04/09 19:14:07;;;;;;;;;;;;;;;;;;5342069;26;20360;-49
2024/04/09 19:16:33;;;;;;;;;;;;;;;;;;5341550;26;19930;-52
2024/04/09 19:18:59;;;;;;;;;;;;;;;;;;5340824;26;20444;-52
2024/04/09 19:21:25;;;;;;;;;;;;;;;;;;5341773;26;20356;-48
2024/04/09 19:23:51;;;;;;;;;;;;;;;;;;5341757;26;19930;-50
2024/04/09 19:26:17;;;;;;;;;;;;;;;;;;5311898;26;19940;-50
2024/04/09 19:28:42;;;;;;;;;;;;;;;;;;5341598;26;19940;-52
2024/04/09 19:31:08;;;;;;;;;;;;;;;;;;5339199;26;19943;-52
2024/04/09 19:33:34;;;;;;;;;;;;;;;;;;5327351;26;19930;-52
2024/04/09 19:36:01;;;;;;;;;;;;;;;;;;5341406;26;20265;-51
2024/04/09 19:38:26;;;;;;;;;;;;;;;;;;5342722;26;19943;-50
2024/04/09 19:40:54;;;;;;;;;;;;;;;;;;5339235;26;20000;-53
2024/04/09 19:43:21;;;;;;;;;;;;;;;;;;5341385;26;19958;-48
2024/04/09 19:45:47;;;;;;;;;;;;;;;;;;5342605;26;19930;-51
2024/04/09 19:48:13;;;;;;;;;;;;;;;;;;5341750;26;19930;-53
2024/04/09 19:50:39;;;;;;;;;;;;;;;;;;5341330;26;19954;-52
2024/04/09 19:53:06;;;;;;;;;;;;;;;;;;5343464;26;19937;-50
2024/04/09 19:55:32;;;;;;;;;;;;;;;;;;5338808;26;20375;-51
2024/04/09 19:58:01;;;;;;;;;;;;;;;;;;5313213;26;19931;-51
2024/04/09 20:00:27;;;;;;;;;;;;;;;;;;5310273;26;19934;-49
2024/04/09 20:02:53;;;;;;;;;;;;;;;;;;5313984;26;20363;-52
2024/04/09 20:05:19;;;;;;;;;;;;;;;;;;5338781;26;19930;-52
2024/04/09 20:07:45;;;;;;;;;;;;;;;;;;5338301;26;19930;-52
2024/04/09 20:10:10;;;;;;;;;;;;;;;;;;5312047;26;19930;-49
2024/04/09 20:12:37;;;;;;;;;;;;;;;;;;5342628;26;19942;-50
2024/04/09 20:15:03;;;;;;;;;;;;;;;;;;5313063;26;19966;-51
2024/04/09 20:17:29;;;;;;;;;;;;;;;;;;5343170;26;19938;-51
2024/04/09 20:19:55;;;;;;;;;;;;;;;;;;5343402;26;19941;-53
2024/04/09 20:22:21;;;;;;;;;;;;;;;;;;5343546;26;19930;-52
2024/04/09 20:24:47;;;;;;;;;;;;;;;;;;5343031;26;19946;-51
2024/04/09 20:27:13;;;;;;;;;;;;;;;;;;5341567;26;19938;-50
2024/04/09 20:29:39;;;;;;;;;;;;;;;;;;5340713;26;19962;-51
2024/04/09 20:32:05;;;;;;;;;;;;;;;;;;5310518;26;20000;-50
2024/04/09 20:34:30;;;;;;;;;;;;;;;;;;5342734;26;20614;-49
2024/04/09 20:36:57;;;;;;;;;;;;;;;;;;5340335;26;20280;-49
2024/04/09 20:39:25;;;;;;;;;;;;;;;;;;5341616;26;20379;-50
2024/04/09 20:41:51;;;;;;;;;;;;;;;;;;5341925;26;19938;-51
2024/04/09 20:44:17;;;;;;;;;;;;;;;;;;5337682;26;20000;-49
2024/04/09 20:46:43;;;;;;;;;;;;;;;;;;5340719;26;19930;-50
2024/04/09 20:49:09;;;;;;;;;;;;;;;;;;5312860;26;19940;-49
2024/04/09 20:51:35;;;;;;;;;;;;;;;;;;5343756;26;20003;-52
2024/04/09 20:54:01;;;;;;;;;;;;;;;;;;5343046;26;20302;-51
2024/04/09 20:56:27;;;;;;;;;;;;;;;;;;5340184;26;19930;-50
2024/04/09 20:58:53;;;;;;;;;;;;;;;;;;5338039;26;20384;-52
2024/04/09 21:01:19;;;;;;;;;;;;;;;;;;5339797;26;19933;-51
2024/04/09 21:03:44;;;;;;;;;;;;;;;;;;5336346;26;20000;-51
2024/04/09 21:06:10;;;;;;;;;;;;;;;;;;5338799;26;20372;-51
2024/04/09 21:08:36;;;;;;;;;;;;;;;;;;5298316;26;19929;-52
2024/04/09 21:11:04;;;;;;;;;;;;;;;;;;5339791;26;20262;-48
2024/04/09 21:13:30;;;;;;;;;;;;;;;;;;5338665;26;19930;-53
2024/04/09 21:15:56;;;;;;;;;;;;;;;;;;5342211;26;20000;-52
2024/04/09 21:18:23;;;;;;;;;;;;;;;;;;5337978;26;20267;-52
2024/04/09 21:20:49;;;;;;;;;;;;;;;;;;5343328;26;19930;-51
2024/04/09 21:23:15;;;;;;;;;;;;;;;;;;5342546;26;19934;-52
2024/04/09 21:25:41;;;;;;;;;;;;;;;;;;5344556;26;19930;-49
2024/04/09 21:28:07;;;;;;;;;;;;;;;;;;5344478;26;19950;-49
2024/04/09 21:30:33;;;;;;;;;;;;;;;;;;5344360;26;20281;-51
2024/04/09 21:33:03;;;;;;;;;;;;;;;;;;5344270;26;19937;-53
2024/04/09 21:35:29;;;;;;;;;;;;;;;;;;5344316;26;20368;-53
2024/04/09 21:37:55;;;;;;;;;;;;;;;;;;5344816;26;19930;-51
2024/04/09 21:40:21;;;;;;;;;;;;;;;;;;5343898;26;19937;-53
2024/04/09 21:42:47;;;;;;;;;;;;;;;;;;5344391;26;19980;-53
2024/04/09 21:45:13;;;;;;;;;;;;;;;;;;5344669;26;19930;-52
2024/04/09 21:47:39;;;;;;;;;;;;;;;;;;5344348;26;19938;-52
2024/04/09 21:50:06;;;;;;;;;;;;;;;;;;5343873;26;20059;-54
2024/04/09 21:52:32;;;;;;;;;;;;;;;;;;5344340;26;19930;-51
2024/04/09 21:54:58;;;;;;;;;;;;;;;;;;5344065;26;19937;-50
2024/04/09 21:57:24;;;;;;;;;;;;;;;;;;5344094;26;20335;-51